createdAt,value
2018-11-21T00:00:33.037Z,11.55
2018-11-21T00:01:07.979Z,10.78
2018-11-21T00:01:43.195Z,10.65
2018-11-21T00:02:18.397Z,10.85
2018-11-21T00:02:53.855Z,10.45
2018-11-21T00:03:29.354Z,10.58
2018-11-21T00:04:04.613Z,11.12
2018-11-21T00:04:39.448Z,11.93
2018-11-21T00:05:14.243Z,11.95
2018-11-21T00:05:48.743Z,10.50
2018-11-21T00:06:23.597Z,10.82
2018-11-21T00:06:58.460Z,11.10
2018-11-21T00:07:37.173Z,10.78
2018-11-21T00:08:12.317Z,11.20
2018-11-21T00:08:47.632Z,11.10
2018-11-21T00:09:23.101Z,10.60
2018-11-21T00:09:57.918Z,10.82
2018-11-21T00:10:33.099Z,12.03
2018-11-21T00:11:08.095Z,11.38
2018-11-21T00:11:46.263Z,11.45
2018-11-21T00:12:21.347Z,11.48
2018-11-21T00:12:57.174Z,12.18
2018-11-21T00:13:31.643Z,11.50
2018-11-21T00:14:07.632Z,11.25
2018-11-21T00:14:42.797Z,11.50
2018-11-21T00:15:17.285Z,12.13
2018-11-21T00:15:52.499Z,11.08
2018-11-21T00:16:27.721Z,11.45
2018-11-21T00:17:02.846Z,11.38
2018-11-21T00:17:38.343Z,11.90
2018-11-21T00:18:13.247Z,11.12
2018-11-21T00:18:48.818Z,11.25
2018-11-21T00:19:23.741Z,10.88
2018-11-21T00:19:59.243Z,10.70
2018-11-21T00:20:34.029Z,10.68
2018-11-21T00:21:09.800Z,11.10
2018-11-21T00:21:44.988Z,10.95
2018-11-21T00:22:20.065Z,11.78
2018-11-21T00:22:54.499Z,10.45
2018-11-21T00:23:29.001Z,11.80
2018-11-21T00:24:03.543Z,10.85
2018-11-21T00:24:38.362Z,10.72
2018-11-21T00:25:13.553Z,10.10
2018-11-21T00:25:48.720Z,11.15
2018-11-21T00:26:23.519Z,11.25
2018-11-21T00:26:58.811Z,11.28
2018-11-21T00:27:34.036Z,11.75
2018-11-21T00:28:09.261Z,11.70
2018-11-21T00:28:44.739Z,10.43
2018-11-21T00:29:19.553Z,11.18
2018-11-21T00:29:54.369Z,10.48
2018-11-21T00:30:29.551Z,11.05
2018-11-21T00:31:04.471Z,11.03
2018-11-21T00:31:38.982Z,11.63
2018-11-21T00:32:21.782Z,11.57
2018-11-21T00:32:56.959Z,11.08
2018-11-21T00:33:32.356Z,11.30
2018-11-21T00:34:07.629Z,11.80
2018-11-21T00:34:42.477Z,12.05
2018-11-21T00:35:17.344Z,11.35
2018-11-21T00:35:52.533Z,11.75
2018-11-21T00:36:28.027Z,11.00
2018-11-21T00:37:03.095Z,11.20
2018-11-21T00:37:38.740Z,10.82
2018-11-21T00:38:13.165Z,12.10
2018-11-21T00:38:48.665Z,11.93
2018-11-21T00:39:24.115Z,11.22
2018-11-21T00:39:59.007Z,11.93
2018-11-21T00:40:34.151Z,12.13
2018-11-21T00:41:09.951Z,11.10
2018-11-21T00:41:44.801Z,10.32
2018-11-21T00:42:19.698Z,11.83
2018-11-21T00:42:54.937Z,12.18
2018-11-21T00:43:30.358Z,11.20
2018-11-21T00:44:05.628Z,11.75
2018-11-21T00:44:40.413Z,11.15
2018-11-21T00:45:14.915Z,12.00
2018-11-21T00:45:49.720Z,11.08
2018-11-21T00:46:24.558Z,9.78
2018-11-21T00:46:59.760Z,12.30
2018-11-21T00:47:35.266Z,11.08
2018-11-21T00:48:11.765Z,11.05
2018-11-21T00:48:46.901Z,11.80
2018-11-21T00:49:22.344Z,11.12
2018-11-21T00:49:57.468Z,10.43
2018-11-21T00:50:32.667Z,11.00
2018-11-21T00:51:07.517Z,11.08
2018-11-21T00:51:42.286Z,11.43
2018-11-21T00:52:17.102Z,11.83
2018-11-21T00:52:52.657Z,11.43
2018-11-21T00:53:27.860Z,11.35
2018-11-21T00:54:03.327Z,11.22
2018-11-21T00:54:38.517Z,10.63
2018-11-21T00:55:13.681Z,11.53
2018-11-21T00:55:48.809Z,10.95
2018-11-21T00:56:24.223Z,10.28
2018-11-21T00:57:00.561Z,10.63
2018-11-21T00:57:35.696Z,12.30
2018-11-21T00:58:10.895Z,11.63
2018-11-21T00:58:46.393Z,11.45
2018-11-21T00:59:21.771Z,10.98
2018-11-21T00:59:56.921Z,10.48
2018-11-21T01:00:31.714Z,11.65
2018-11-21T01:01:06.743Z,11.75
2018-11-21T01:01:41.535Z,11.70
2018-11-21T01:02:16.774Z,11.88
2018-11-21T01:02:52.187Z,10.45
2018-11-21T01:03:27.021Z,10.63
2018-11-21T01:04:02.154Z,9.75
2018-11-21T01:04:37.357Z,11.12
2018-11-21T01:05:12.910Z,11.97
2018-11-21T01:05:47.918Z,11.80
2018-11-21T01:06:22.341Z,11.20
2018-11-21T01:06:57.555Z,11.68
2018-11-21T01:07:32.674Z,11.15
2018-11-21T01:08:07.187Z,11.08
2018-11-21T01:08:42.007Z,11.30
2018-11-21T01:09:17.004Z,12.10
2018-11-21T01:09:52.497Z,11.00
2018-11-21T01:10:27.611Z,11.57
2018-11-21T01:11:03.036Z,10.68
2018-11-21T01:11:38.458Z,11.80
2018-11-21T01:12:13.911Z,11.22
2018-11-21T01:12:49.402Z,12.23
2018-11-21T01:13:25.003Z,11.25
2018-11-21T01:13:59.989Z,11.75
2018-11-21T01:14:34.801Z,11.05
2018-11-21T01:15:10.092Z,11.65
2018-11-21T01:15:45.573Z,11.12
2018-11-21T01:16:20.993Z,10.98
2018-11-21T01:16:56.201Z,10.90
2018-11-21T01:17:31.321Z,10.93
2018-11-21T01:18:06.743Z,11.35
2018-11-21T01:18:41.562Z,10.82
2018-11-21T01:19:16.897Z,12.25
2018-11-21T01:19:51.706Z,11.75
2018-11-21T01:20:26.929Z,11.95
2018-11-21T01:21:02.405Z,10.38
2018-11-21T01:21:37.289Z,10.10
2018-11-21T01:22:12.735Z,11.43
2018-11-21T01:22:47.551Z,10.30
2018-11-21T01:23:22.040Z,10.60
2018-11-21T01:23:56.955Z,10.05
2018-11-21T01:24:31.870Z,10.65
2018-11-21T01:25:08.457Z,10.30
2018-11-21T01:25:43.634Z,10.05
2018-11-21T01:26:18.473Z,10.43
2018-11-21T01:26:53.593Z,10.85
2018-11-21T01:27:28.416Z,10.60
2018-11-21T01:28:03.276Z,10.70
2018-11-21T01:28:38.453Z,11.05
2018-11-21T01:29:13.583Z,10.63
2018-11-21T01:29:49.021Z,10.80
2018-11-21T01:30:24.235Z,10.93
2018-11-21T01:30:59.464Z,11.22
2018-11-21T01:31:34.339Z,12.07
2018-11-21T01:32:09.509Z,11.83
2018-11-21T01:32:44.417Z,10.88
2018-11-21T01:33:19.267Z,10.95
2018-11-21T01:33:54.257Z,10.50
2018-11-21T01:34:29.697Z,11.18
2018-11-21T01:35:04.539Z,11.00
2018-11-21T01:35:39.918Z,10.68
2018-11-21T01:36:15.027Z,11.15
2018-11-21T01:36:50.185Z,11.40
2018-11-21T01:37:25.099Z,11.80
2018-11-21T01:37:59.618Z,10.85
2018-11-21T01:38:34.425Z,9.95
2018-11-21T01:39:09.831Z,12.35
2018-11-21T01:39:44.261Z,11.43
2018-11-21T01:40:19.697Z,10.70
2018-11-21T01:40:55.135Z,10.05
2018-11-21T01:41:30.041Z,10.55
2018-11-21T01:42:05.273Z,10.85
2018-11-21T01:42:40.184Z,12.03
2018-11-21T01:43:14.691Z,10.85
2018-11-21T01:43:49.819Z,10.30
2018-11-21T01:44:25.051Z,11.35
2018-11-21T01:45:00.502Z,10.70
2018-11-21T01:45:35.979Z,11.28
2018-11-21T01:46:11.236Z,10.38
2018-11-21T01:46:46.339Z,10.95
2018-11-21T01:47:21.177Z,11.25
2018-11-21T01:47:56.606Z,11.43
2018-11-21T01:48:31.791Z,11.33
2018-11-21T01:49:06.778Z,11.38
2018-11-21T01:49:41.896Z,10.70
2018-11-21T01:50:17.021Z,11.35
2018-11-21T01:50:51.531Z,10.63
2018-11-21T01:51:26.655Z,10.08
2018-11-21T01:52:02.063Z,11.18
2018-11-21T01:52:36.667Z,10.78
2018-11-21T01:53:12.231Z,10.40
2018-11-21T01:53:47.361Z,10.88
2018-11-21T01:54:22.913Z,11.40
2018-11-21T01:54:58.115Z,11.95
2018-11-21T01:55:33.139Z,11.93
2018-11-21T01:56:08.641Z,11.30
2018-11-21T01:56:43.867Z,11.28
2018-11-21T01:57:18.706Z,11.28
2018-11-21T01:57:53.533Z,11.18
2018-11-21T01:58:28.339Z,10.95
2018-11-21T01:59:03.539Z,10.48
2018-11-21T01:59:38.659Z,10.93
2018-11-21T02:00:14.616Z,11.10
2018-11-21T02:00:49.756Z,10.90
2018-11-21T02:01:24.854Z,10.82
2018-11-21T02:02:00.076Z,10.28
2018-11-21T02:02:34.589Z,9.83
2018-11-21T02:03:10.152Z,10.45
2018-11-21T02:03:45.269Z,11.05
2018-11-21T02:04:20.428Z,10.05
2018-11-21T02:04:55.627Z,11.10
2018-11-21T02:05:30.842Z,11.03
2018-11-21T02:06:06.104Z,10.15
2018-11-21T02:06:40.549Z,11.70
2018-11-21T02:07:15.992Z,10.60
2018-11-21T02:07:50.798Z,10.63
2018-11-21T02:08:25.287Z,11.43
2018-11-21T02:09:00.754Z,11.35
2018-11-21T02:09:35.247Z,10.45
2018-11-21T02:10:10.578Z,11.88
2018-11-21T02:10:45.701Z,11.10
2018-11-21T02:11:20.209Z,11.12
2018-11-21T02:11:54.331Z,10.60
2018-11-21T02:12:29.433Z,10.32
2018-11-21T02:13:03.939Z,10.88
2018-11-21T02:13:39.724Z,11.53
2018-11-21T02:14:14.902Z,11.15
2018-11-21T02:14:50.059Z,11.40
2018-11-21T02:15:24.845Z,11.10
2018-11-21T02:16:00.378Z,11.65
2018-11-21T02:16:35.939Z,10.50
2018-11-21T02:17:11.656Z,10.23
2018-11-21T02:17:47.078Z,12.13
2018-11-21T02:18:21.894Z,11.60
2018-11-21T02:18:57.331Z,10.80
2018-11-21T02:19:32.808Z,10.75
2018-11-21T02:20:08.261Z,11.10
2018-11-21T02:20:43.104Z,11.05
2018-11-21T02:21:18.571Z,10.40
2018-11-21T02:21:53.763Z,10.85
2018-11-21T02:22:28.983Z,10.25
2018-11-21T02:23:04.398Z,10.58
2018-11-21T02:23:39.605Z,11.15
2018-11-21T02:24:15.098Z,10.43
2018-11-21T02:24:49.965Z,11.38
2018-11-21T02:25:25.218Z,10.30
2018-11-21T02:26:00.444Z,11.25
2018-11-21T02:26:35.268Z,10.85
2018-11-21T02:27:10.510Z,11.48
2018-11-21T02:27:45.710Z,11.78
2018-11-21T02:28:20.948Z,10.72
2018-11-21T02:28:57.218Z,11.15
2018-11-21T02:29:32.342Z,10.23
2018-11-21T02:30:08.915Z,12.40
2018-11-21T02:30:44.092Z,10.82
2018-11-21T02:31:19.214Z,10.95
2018-11-21T02:31:54.733Z,10.58
2018-11-21T02:32:30.214Z,10.90
2018-11-21T02:33:04.890Z,11.50
2018-11-21T02:33:39.736Z,11.05
2018-11-21T02:34:14.556Z,11.35
2018-11-21T02:34:49.386Z,11.10
2018-11-21T02:35:24.184Z,11.15
2018-11-21T02:35:59.641Z,11.38
2018-11-21T02:36:34.444Z,10.43
2018-11-21T02:37:09.360Z,10.85
2018-11-21T02:37:44.783Z,10.75
2018-11-21T02:38:19.888Z,10.80
2018-11-21T02:38:55.063Z,10.55
2018-11-21T02:39:30.535Z,9.88
2018-11-21T02:40:05.767Z,10.85
2018-11-21T02:40:40.582Z,11.53
2018-11-21T02:41:15.494Z,12.05
2018-11-21T02:41:50.515Z,12.55
2018-11-21T02:42:25.456Z,9.88
2018-11-21T02:42:59.980Z,11.48
2018-11-21T02:43:34.762Z,10.85
2018-11-21T02:44:10.395Z,11.53
2018-11-21T02:44:45.574Z,10.80
2018-11-21T02:45:20.434Z,11.00
2018-11-21T02:45:55.891Z,11.03
2018-11-21T02:46:31.021Z,10.60
2018-11-21T02:47:05.659Z,11.80
2018-11-21T02:47:40.426Z,10.98
2018-11-21T02:48:15.650Z,11.63
2018-11-21T02:48:50.983Z,11.00
2018-11-21T02:49:26.201Z,11.80
2018-11-21T02:50:01.351Z,12.18
2018-11-21T02:50:35.833Z,11.30
2018-11-21T02:51:11.373Z,11.05
2018-11-21T02:51:46.602Z,11.68
2018-11-21T02:52:21.749Z,11.78
2018-11-21T02:52:56.944Z,11.63
2018-11-21T02:53:32.098Z,11.08
2018-11-21T02:54:07.244Z,11.12
2018-11-21T02:54:42.062Z,10.93
2018-11-21T02:55:16.627Z,11.57
2018-11-21T02:55:51.860Z,10.68
2018-11-21T02:57:09.980Z,10.53
2018-11-21T02:57:44.488Z,12.53
2018-11-21T02:58:19.321Z,11.75
2018-11-21T02:58:54.225Z,11.65
2018-11-21T02:59:28.696Z,11.70
2018-11-21T03:00:21.276Z,10.65
2018-11-21T03:00:56.580Z,10.32
2018-11-21T03:01:31.410Z,10.25
2018-11-21T03:02:06.752Z,10.88
2018-11-21T03:02:42.207Z,10.28
2018-11-21T03:03:17.395Z,10.98
2018-11-21T03:03:52.220Z,11.78
2018-11-21T03:04:27.713Z,11.08
2018-11-21T03:05:02.611Z,11.55
2018-11-21T03:05:37.116Z,11.38
2018-11-21T03:06:11.996Z,11.33
2018-11-21T03:06:47.468Z,11.15
2018-11-21T03:07:22.576Z,11.05
2018-11-21T03:07:58.754Z,12.03
2018-11-21T03:08:32.920Z,11.12
2018-11-21T03:09:09.358Z,11.80
2018-11-21T03:09:44.482Z,11.78
2018-11-21T03:10:20.766Z,12.40
2018-11-21T03:11:01.424Z,11.05
2018-11-21T03:11:36.970Z,10.50
2018-11-21T03:12:11.426Z,11.95
2018-11-21T03:12:45.936Z,11.93
2018-11-21T03:13:28.103Z,11.93
2018-11-21T03:13:56.180Z,11.00
2018-11-21T03:14:31.339Z,11.55
2018-11-21T03:15:06.789Z,11.65
2018-11-21T03:15:41.576Z,11.78
2018-11-21T03:16:16.989Z,10.88
2018-11-21T03:16:51.803Z,11.22
2018-11-21T03:17:27.216Z,11.20
2018-11-21T03:18:02.045Z,10.80
2018-11-21T03:18:37.475Z,11.93
2018-11-21T03:19:12.602Z,11.45
2018-11-21T03:19:48.040Z,10.88
2018-11-21T03:20:23.208Z,11.03
2018-11-21T03:20:58.368Z,11.15
2018-11-21T03:21:32.857Z,11.22
2018-11-21T03:22:08.267Z,10.75
2018-11-21T03:22:43.494Z,11.22
2018-11-21T03:23:18.880Z,11.28
2018-11-21T03:23:54.110Z,11.08
2018-11-21T03:24:29.119Z,12.25
2018-11-21T03:25:05.032Z,11.90
2018-11-21T03:25:40.210Z,11.68
2018-11-21T03:26:15.412Z,10.82
2018-11-21T03:26:50.944Z,11.35
2018-11-21T03:27:25.762Z,10.90
2018-11-21T03:28:00.962Z,12.33
2018-11-21T03:28:36.035Z,10.93
2018-11-21T03:29:10.573Z,10.88
2018-11-21T03:29:45.764Z,11.18
2018-11-21T03:30:21.283Z,11.00
2018-11-21T03:30:55.783Z,12.18
2018-11-21T03:31:31.313Z,10.80
2018-11-21T03:32:06.578Z,10.18
2018-11-21T03:32:41.752Z,12.18
2018-11-21T03:33:16.586Z,11.12
2018-11-21T03:33:57.652Z,11.70
2018-11-21T03:34:26.630Z,11.38
2018-11-21T03:35:01.660Z,11.38
2018-11-21T03:35:36.776Z,10.85
2018-11-21T03:36:12.410Z,10.78
2018-11-21T03:36:51.736Z,11.22
2018-11-21T03:37:26.559Z,11.53
2018-11-21T03:38:01.774Z,11.40
2018-11-21T03:38:36.279Z,11.08
2018-11-21T03:39:11.710Z,10.60
2018-11-21T03:39:47.149Z,11.15
2018-11-21T03:40:22.237Z,10.70
2018-11-21T03:40:57.702Z,10.90
2018-11-21T03:41:32.755Z,10.35
2018-11-21T03:42:07.846Z,10.35
2018-11-21T03:42:42.657Z,12.23
2018-11-21T03:43:17.783Z,11.60
2018-11-21T03:43:52.932Z,11.65
2018-11-21T03:44:27.819Z,11.22
2018-11-21T03:45:02.336Z,10.90
2018-11-21T03:45:37.147Z,11.90
2018-11-21T03:46:12.852Z,11.63
2018-11-21T03:46:48.525Z,13.08
2018-11-21T03:47:23.343Z,10.85
2018-11-21T03:47:58.488Z,10.80
2018-11-21T03:48:33.890Z,10.85
2018-11-21T03:49:08.378Z,10.93
2018-11-21T03:49:43.594Z,11.30
2018-11-21T03:50:18.764Z,11.45
2018-11-21T03:50:53.567Z,12.30
2018-11-21T03:51:28.100Z,11.00
2018-11-21T03:52:03.498Z,12.33
2018-11-21T03:52:38.732Z,10.45
2018-11-21T03:53:13.876Z,11.55
2018-11-21T03:53:48.717Z,10.20
2018-11-21T03:54:24.028Z,11.03
2018-11-21T03:54:59.219Z,10.40
2018-11-21T03:55:34.034Z,11.15
2018-11-21T03:56:09.518Z,10.90
2018-11-21T03:56:44.280Z,10.55
2018-11-21T03:57:19.508Z,11.20
2018-11-21T03:57:54.360Z,10.55
2018-11-21T03:58:29.589Z,11.30
2018-11-21T03:59:04.247Z,10.78
2018-11-21T03:59:39.700Z,10.88
2018-11-21T04:00:14.665Z,10.28
2018-11-21T04:00:49.734Z,9.15
2018-11-21T04:01:24.963Z,10.53
2018-11-21T04:01:59.798Z,10.32
2018-11-21T04:02:34.926Z,10.48
2018-11-21T04:03:10.333Z,10.63
2018-11-21T04:03:44.851Z,10.15
2018-11-21T04:04:19.709Z,10.20
2018-11-21T04:04:54.883Z,10.63
2018-11-21T04:05:29.752Z,11.60
2018-11-21T04:06:04.631Z,10.40
2018-11-21T04:06:40.098Z,9.85
2018-11-21T04:07:15.208Z,10.72
2018-11-21T04:07:50.412Z,9.85
2018-11-21T04:08:25.215Z,9.68
2018-11-21T04:08:59.723Z,9.35
2018-11-21T04:09:34.178Z,10.40
2018-11-21T04:10:13.756Z,10.15
2018-11-21T04:10:48.574Z,9.58
2018-11-21T04:11:22.996Z,10.90
2018-11-21T04:11:57.803Z,11.22
2018-11-21T04:12:32.955Z,10.38
2018-11-21T04:13:08.055Z,9.58
2018-11-21T04:13:43.526Z,11.28
2018-11-21T04:14:18.662Z,10.63
2018-11-21T04:14:53.515Z,9.23
2018-11-21T04:15:28.346Z,9.58
2018-11-21T04:16:03.506Z,10.30
2018-11-21T04:16:38.325Z,11.55
2018-11-21T04:17:13.504Z,10.13
2018-11-21T04:17:48.994Z,9.40
2018-11-21T04:18:24.595Z,10.25
2018-11-21T04:19:00.034Z,10.35
2018-11-21T04:19:34.849Z,10.85
2018-11-21T04:20:10.457Z,9.25
2018-11-21T04:20:44.565Z,10.05
2018-11-21T04:21:19.771Z,10.72
2018-11-21T04:21:54.928Z,9.88
2018-11-21T04:22:30.454Z,9.88
2018-11-21T04:23:06.120Z,10.68
2018-11-21T04:23:41.621Z,10.00
2018-11-21T04:24:16.727Z,9.50
2018-11-21T04:24:51.558Z,10.25
2018-11-21T04:25:26.767Z,9.90
2018-11-21T04:26:01.592Z,10.20
2018-11-21T04:26:37.040Z,10.03
2018-11-21T04:27:12.275Z,10.03
2018-11-21T04:27:47.464Z,10.23
2018-11-21T04:28:22.968Z,9.48
2018-11-21T04:28:58.105Z,9.15
2018-11-21T04:29:33.563Z,10.70
2018-11-21T04:30:11.003Z,9.20
2018-11-21T04:30:46.491Z,9.55
2018-11-21T04:31:21.582Z,9.15
2018-11-21T04:31:56.718Z,9.70
2018-11-21T04:32:32.092Z,9.68
2018-11-21T04:33:07.569Z,10.35
2018-11-21T04:33:42.492Z,9.95
2018-11-21T04:34:17.351Z,9.30
2018-11-21T04:34:52.762Z,9.88
2018-11-21T04:35:28.211Z,9.50
2018-11-21T04:36:03.349Z,9.33
2018-11-21T04:36:38.514Z,9.58
2018-11-21T04:37:13.961Z,10.15
2018-11-21T04:37:49.088Z,9.25
2018-11-21T04:38:24.527Z,9.00
2018-11-21T04:38:59.419Z,9.35
2018-11-21T04:39:34.578Z,9.75
2018-11-21T04:40:09.420Z,10.30
2018-11-21T04:40:44.662Z,10.60
2018-11-21T04:41:19.914Z,10.35
2018-11-21T04:41:54.761Z,9.53
2018-11-21T04:42:30.273Z,9.60
2018-11-21T04:43:05.803Z,9.28
2018-11-21T04:43:41.335Z,9.75
2018-11-21T04:44:16.529Z,10.00
2018-11-21T04:44:51.343Z,9.28
2018-11-21T04:45:26.854Z,9.20
2018-11-21T04:46:02.050Z,10.48
2018-11-21T04:46:36.887Z,9.00
2018-11-21T04:47:11.395Z,10.05
2018-11-21T04:47:46.576Z,9.70
2018-11-21T04:48:22.219Z,9.78
2018-11-21T04:48:57.084Z,9.48
2018-11-21T04:49:31.890Z,9.58
2018-11-21T04:50:07.527Z,8.65
2018-11-21T04:50:42.941Z,10.00
2018-11-21T04:51:18.144Z,8.95
2018-11-21T04:51:52.969Z,9.53
2018-11-21T04:52:27.774Z,9.43
2018-11-21T04:53:05.889Z,9.78
2018-11-21T04:53:40.691Z,8.45
2018-11-21T04:54:15.540Z,9.05
2018-11-21T04:54:50.835Z,10.05
2018-11-21T04:55:25.747Z,9.68
2018-11-21T04:56:00.569Z,9.45
2018-11-21T04:56:35.706Z,9.83
2018-11-21T04:57:10.987Z,9.80
2018-11-21T04:57:46.483Z,10.50
2018-11-21T04:58:21.888Z,9.53
2018-11-21T04:58:56.692Z,8.53
2018-11-21T04:59:31.856Z,8.88
2018-11-21T05:00:08.393Z,9.05
2018-11-21T05:00:43.214Z,10.18
2018-11-21T05:01:18.078Z,9.60
2018-11-21T05:01:52.934Z,9.45
2018-11-21T05:02:27.075Z,9.53
2018-11-21T05:03:01.839Z,9.13
2018-11-21T05:03:36.950Z,9.50
2018-11-21T05:04:11.787Z,9.68
2018-11-21T05:04:47.213Z,9.05
2018-11-21T05:05:22.151Z,9.50
2018-11-21T05:05:57.582Z,9.35
2018-11-21T05:06:32.682Z,10.08
2018-11-21T05:07:07.915Z,9.40
2018-11-21T05:07:43.337Z,9.60
2018-11-21T05:08:17.854Z,9.53
2018-11-21T05:08:52.992Z,9.13
2018-11-21T05:09:27.885Z,8.88
2018-11-21T05:10:03.347Z,9.00
2018-11-21T05:10:37.748Z,9.40
2018-11-21T05:11:12.955Z,9.73
2018-11-21T05:11:48.095Z,9.65
2018-11-21T05:12:22.541Z,9.65
2018-11-21T05:12:57.495Z,9.10
2018-11-21T05:13:32.803Z,9.53
2018-11-21T05:14:07.635Z,9.20
2018-11-21T05:14:42.460Z,9.53
2018-11-21T05:15:17.933Z,9.15
2018-11-21T05:15:52.913Z,9.10
2018-11-21T05:16:27.753Z,9.38
2018-11-21T05:17:03.194Z,10.00
2018-11-21T05:17:38.438Z,9.00
2018-11-21T05:18:13.267Z,9.50
2018-11-21T05:18:48.474Z,8.83
2018-11-21T05:19:22.981Z,9.30
2018-11-21T05:19:58.105Z,9.60
2018-11-21T05:20:33.289Z,9.90
2018-11-21T05:21:08.115Z,8.60
2018-11-21T05:21:43.295Z,8.63
2018-11-21T05:22:18.489Z,8.05
2018-11-21T05:22:53.981Z,8.75
2018-11-21T05:23:29.375Z,9.20
2018-11-21T05:24:04.211Z,9.20
2018-11-21T05:24:39.381Z,8.95
2018-11-21T05:25:14.974Z,8.83
2018-11-21T05:25:50.013Z,8.70
2018-11-21T05:26:24.533Z,9.58
2018-11-21T05:27:00.092Z,9.30
2018-11-21T05:27:35.503Z,10.25
2018-11-21T05:28:11.032Z,8.70
2018-11-21T05:28:45.877Z,8.95
2018-11-21T05:29:21.433Z,9.30
2018-11-21T05:29:56.926Z,9.28
2018-11-21T05:30:32.126Z,8.65
2018-11-21T05:31:07.597Z,10.40
2018-11-21T05:31:42.411Z,11.22
2018-11-21T05:32:17.269Z,11.63
2018-11-21T05:32:52.743Z,11.40
2018-11-21T05:33:28.354Z,10.98
2018-11-21T05:34:03.175Z,8.68
2018-11-21T05:34:37.685Z,9.60
2018-11-21T05:35:12.618Z,8.60
2018-11-21T05:35:47.147Z,9.30
2018-11-21T05:36:22.339Z,8.98
2018-11-21T05:36:57.226Z,9.55
2018-11-21T05:37:32.420Z,10.75
2018-11-21T05:38:07.608Z,8.78
2018-11-21T05:38:42.834Z,9.15
2018-11-21T05:39:17.996Z,9.45
2018-11-21T05:39:52.812Z,8.80
2018-11-21T05:40:27.582Z,8.95
2018-11-21T05:41:02.045Z,8.38
2018-11-21T05:41:37.243Z,8.65
2018-11-21T05:42:12.687Z,9.78
2018-11-21T05:42:48.621Z,8.93
2018-11-21T05:43:23.530Z,9.08
2018-11-21T05:43:59.080Z,9.38
2018-11-21T05:44:34.217Z,8.90
2018-11-21T05:45:10.129Z,9.43
2018-11-21T05:45:45.391Z,8.48
2018-11-21T05:46:20.561Z,9.03
2018-11-21T05:46:56.038Z,9.03
2018-11-21T05:47:31.167Z,9.30
2018-11-21T05:48:07.073Z,8.80
2018-11-21T05:48:41.997Z,9.98
2018-11-21T05:49:17.252Z,9.35
2018-11-21T05:49:52.339Z,9.00
2018-11-21T05:50:27.255Z,10.43
2018-11-21T05:51:02.438Z,10.35
2018-11-21T05:51:37.339Z,9.23
2018-11-21T05:52:12.641Z,8.98
2018-11-21T05:52:47.483Z,8.55
2018-11-21T05:53:22.035Z,9.25
2018-11-21T05:53:57.515Z,10.98
2018-11-21T05:54:32.602Z,9.50
2018-11-21T05:55:08.196Z,10.15
2018-11-21T05:55:43.910Z,11.97
2018-11-21T05:56:18.711Z,8.95
2018-11-21T05:56:53.844Z,9.85
2018-11-21T05:57:29.022Z,9.05
2018-11-21T05:58:03.908Z,8.90
2018-11-21T05:58:39.391Z,8.15
2018-11-21T05:59:15.399Z,9.75
2018-11-21T05:59:53.305Z,9.08
2018-11-21T06:00:28.639Z,7.78
2018-11-21T06:01:03.776Z,9.10
2018-11-21T06:01:39.243Z,8.18
2018-11-21T06:02:14.945Z,8.53
2018-11-21T06:02:50.427Z,9.10
2018-11-21T06:03:25.875Z,10.72
2018-11-21T06:04:01.368Z,9.50
2018-11-21T06:04:36.273Z,10.05
2018-11-21T06:05:13.995Z,11.03
2018-11-21T06:05:49.667Z,8.75
2018-11-21T06:06:24.975Z,9.18
2018-11-21T06:07:00.383Z,8.40
2018-11-21T06:07:36.091Z,9.55
2018-11-21T06:08:12.474Z,8.40
2018-11-21T06:08:47.483Z,8.30
2018-11-21T06:09:22.834Z,8.88
2018-11-21T06:09:57.302Z,9.90
2018-11-21T06:10:32.531Z,7.65
2018-11-21T06:11:08.197Z,9.00
2018-11-21T06:11:43.895Z,8.83
2018-11-21T06:12:19.343Z,9.85
2018-11-21T06:12:54.395Z,8.40
2018-11-21T06:13:30.722Z,8.70
2018-11-21T06:14:06.303Z,9.25
2018-11-21T06:14:41.484Z,8.08
2018-11-21T06:15:16.384Z,8.83
2018-11-21T06:15:51.335Z,8.80
2018-11-21T06:16:26.208Z,8.78
2018-11-21T06:17:01.333Z,8.30
2018-11-21T06:17:35.793Z,9.60
2018-11-21T06:18:11.071Z,8.40
2018-11-21T06:18:46.397Z,8.75
2018-11-21T06:19:20.921Z,9.00
2018-11-21T06:19:55.749Z,9.68
2018-11-21T06:20:30.876Z,9.25
2018-11-21T06:21:06.658Z,9.60
2018-11-21T06:21:41.604Z,8.78
2018-11-21T06:22:16.750Z,8.23
2018-11-21T06:22:51.645Z,8.00
2018-11-21T06:23:26.769Z,7.78
2018-11-21T06:24:01.914Z,8.10
2018-11-21T06:24:36.915Z,9.23
2018-11-21T06:25:12.244Z,7.67
2018-11-21T06:25:47.469Z,8.03
2018-11-21T06:26:22.617Z,8.85
2018-11-21T06:27:02.546Z,8.43
2018-11-21T06:27:37.747Z,8.15
2018-11-21T06:28:13.281Z,8.48
2018-11-21T06:28:48.824Z,7.40
2018-11-21T06:29:23.633Z,8.13
2018-11-21T06:29:58.191Z,8.75
2018-11-21T06:30:33.677Z,8.95
2018-11-21T06:31:08.496Z,7.85
2018-11-21T06:31:43.304Z,8.75
2018-11-21T06:32:18.228Z,8.98
2018-11-21T06:32:53.632Z,8.40
2018-11-21T06:33:29.061Z,8.33
2018-11-21T06:34:04.186Z,7.95
2018-11-21T06:34:39.362Z,8.68
2018-11-21T06:35:14.353Z,8.30
2018-11-21T06:35:49.583Z,7.85
2018-11-21T06:36:27.603Z,9.83
2018-11-21T06:37:02.510Z,8.80
2018-11-21T06:37:38.172Z,8.45
2018-11-21T06:38:13.399Z,7.92
2018-11-21T06:38:49.014Z,8.75
2018-11-21T06:39:23.849Z,8.03
2018-11-21T06:39:59.328Z,8.88
2018-11-21T06:40:34.406Z,8.30
2018-11-21T06:41:09.685Z,8.55
2018-11-21T06:42:06.934Z,8.25
2018-11-21T06:42:52.376Z,8.13
2018-11-21T06:43:27.539Z,7.78
2018-11-21T06:44:03.055Z,8.38
2018-11-21T06:44:38.269Z,9.58
2018-11-21T06:45:13.407Z,7.97
2018-11-21T06:45:48.524Z,8.68
2018-11-21T06:46:23.094Z,8.65
2018-11-21T06:46:58.153Z,8.23
2018-11-21T06:47:33.003Z,8.55
2018-11-21T06:48:08.591Z,8.43
2018-11-21T06:48:44.082Z,8.58
2018-11-21T06:49:19.363Z,8.75
2018-11-21T06:49:54.820Z,8.13
2018-11-21T06:50:30.248Z,8.28
2018-11-21T06:51:04.879Z,8.13
2018-11-21T06:51:40.006Z,8.90
2018-11-21T06:52:21.932Z,8.88
2018-11-21T06:52:50.280Z,8.73
2018-11-21T06:53:25.069Z,8.65
2018-11-21T06:54:00.155Z,8.33
2018-11-21T06:54:34.959Z,7.90
2018-11-21T06:55:10.443Z,8.43
2018-11-21T06:55:45.624Z,9.68
2018-11-21T06:56:20.765Z,10.13
2018-11-21T06:56:56.197Z,11.10
2018-11-21T06:57:31.037Z,9.83
2018-11-21T06:58:06.269Z,11.03
2018-11-21T06:58:41.033Z,10.55
2018-11-21T06:59:16.494Z,9.33
2018-11-21T06:59:51.281Z,10.15
2018-11-21T07:00:25.813Z,9.33
2018-11-21T07:01:01.017Z,9.20
2018-11-21T07:01:36.549Z,8.80
2018-11-21T07:02:11.156Z,8.55
2018-11-21T07:02:46.080Z,8.78
2018-11-21T07:03:21.711Z,8.83
2018-11-21T07:03:56.992Z,8.58
2018-11-21T07:04:32.195Z,9.70
2018-11-21T07:05:08.428Z,8.78
2018-11-21T07:05:43.640Z,10.03
2018-11-21T07:06:18.864Z,9.03
2018-11-21T07:06:53.984Z,8.18
2018-11-21T07:07:29.108Z,9.30
2018-11-21T07:08:03.927Z,7.45
2018-11-21T07:08:39.046Z,9.33
2018-11-21T07:09:13.488Z,8.80
2018-11-21T07:09:48.730Z,7.85
2018-11-21T07:10:23.855Z,9.45
2018-11-21T07:10:58.971Z,8.80
2018-11-21T07:11:33.465Z,9.33
2018-11-21T07:12:08.976Z,7.95
2018-11-21T07:12:44.549Z,10.30
2018-11-21T07:13:19.954Z,9.45
2018-11-21T07:13:55.256Z,9.33
2018-11-21T07:14:30.077Z,9.23
2018-11-21T07:15:05.798Z,8.38
2018-11-21T07:15:40.230Z,8.70
2018-11-21T07:16:15.376Z,8.83
2018-11-21T07:16:50.518Z,8.73
2018-11-21T07:17:25.702Z,8.85
2018-11-21T07:18:00.516Z,8.98
2018-11-21T07:18:35.674Z,8.98
2018-11-21T07:19:12.688Z,8.70
2018-11-21T07:19:48.146Z,8.73
2018-11-21T07:20:23.906Z,9.40
2018-11-21T07:20:58.829Z,9.25
2018-11-21T07:21:33.730Z,9.70
2018-11-21T07:22:08.713Z,9.20
2018-11-21T07:22:43.930Z,8.23
2018-11-21T07:23:18.958Z,8.70
2018-11-21T07:23:55.300Z,8.70
2018-11-21T07:24:31.049Z,7.92
2018-11-21T07:25:16.343Z,8.75
2018-11-21T07:25:51.560Z,9.50
2018-11-21T07:26:26.496Z,8.45
2018-11-21T07:27:01.441Z,8.95
2018-11-21T07:27:36.562Z,8.20
2018-11-21T07:28:13.163Z,8.70
2018-11-21T07:28:47.199Z,9.45
2018-11-21T07:29:21.625Z,9.30
2018-11-21T07:29:56.788Z,9.25
2018-11-21T07:30:31.524Z,9.53
2018-11-21T07:31:06.198Z,9.40
2018-11-21T07:31:40.992Z,8.13
2018-11-21T07:32:16.092Z,8.93
2018-11-21T07:32:50.992Z,8.45
2018-11-21T07:33:25.838Z,8.73
2018-11-21T07:34:00.918Z,7.67
2018-11-21T07:34:36.381Z,7.87
2018-11-21T07:35:17.529Z,8.50
2018-11-21T07:35:46.206Z,9.08
2018-11-21T07:36:20.744Z,8.63
2018-11-21T07:36:55.936Z,8.85
2018-11-21T07:37:30.752Z,8.70
2018-11-21T07:38:06.442Z,9.48
2018-11-21T07:38:41.278Z,8.45
2018-11-21T07:39:16.432Z,9.65
2018-11-21T07:39:51.651Z,8.40
2018-11-21T07:40:26.074Z,8.80
2018-11-21T07:41:00.880Z,8.33